GRZ512 Details

Departure: Denver International Airport (KDEN)
Arrival: Sacramento International Airport (KSMF)
Route: FOOOT4 RLG EKR J173 TCH J154 BAM ANAHO SLMMR3


Current Weather Information
KDEN 171553Z 26004KT 10SM FEW110 FEW180 27/04 A2996 RMK AO2 SLP055 T02720039
KSMF 171553Z 17007KT 10SM CLR 21/14 A2977 RMK AO2 SLP079 T02060139